Flight Track Log - Related Links

Times and Time Zones

All times are in EDT time to prevent confusion due to time zone crossing. See the N39PH flight status page for this flight to view local times or setup timezone preferences in your user account.

Time Position Orientation Groundspeed Altitude Reporting Facility
EDT Latitude Longitude Course Direction KTS MPH feet Rate Location/Type
Sun 10:49:53 PM 35.4072 -108.1639 90° East 262 302 17,300  Level Albuquerque Center
Sun 10:50:54 PM 35.3894 -108.0811 105° East 261 300 17,000 -148 Descending Albuquerque Center
Sun 10:51:55 PM 35.3667 -107.9894 107° East 254 292 17,000  Level Albuquerque Center
Sun 10:52:56 PM 35.3503 -107.9122 105° East 247 284 17,000  Level Albuquerque Center
Sun 10:53:57 PM 35.3306 -107.8222 105° East 244 281 17,000  Level Albuquerque Center
Sun 10:54:58 PM 35.3106 -107.7447 108° East 248 285 17,000  Level Albuquerque Center
Sun 10:55:00 PM 35.4833 -108.3066 90° East  Level FlightAware Approximate
Sun 10:56:00 PM 35.2933 -107.6650 105° East 250 288 17,000  Level Albuquerque Center
Sun 10:57:01 PM 35.2736 -107.5683 104° East 258 297 17,100  Climbing Albuquerque Center
Sun 10:58:02 PM 35.2567 -107.4936 106° East 262 302 17,000 -158 Descending Albuquerque Center
Sun 10:58:55 PM 35.2317 -107.4033 109° East 261 300 16,800 -500 Descending Albuquerque Center
Sun 10:59:26 PM 35.2228 -107.3642 106° East 258 297 16,300 -783 Descending Albuquerque Center
Sun 11:00:04 PM 35.2142 -107.3256 105° East 256 295 15,900 -900 Descending Albuquerque Center
Sun 11:00:26 PM 35.2006 -107.2814 111° Southeast 256 295 15,400 -1,082 Descending Albuquerque Center
Sun 11:01:05 PM 35.1878 -107.2269 106° East 255 293 14,800 -590 Descending Albuquerque Center
Sun 11:01:27 PM 35.1819 -107.1978 104° East 252 290 14,800 -787 Level Albuquerque Center
Sun 11:02:06 PM 35.1692 -107.1469 107° East 247 284 14,000 -900 Descending Albuquerque Center
Sun 11:02:27 PM 35.1625 -107.1197 107° East 242 278 13,900 -689 Descending Albuquerque Center
Sun 11:03:07 PM 35.1494 -107.0714 108° East 237 273 13,300 -885 Descending Albuquerque Center
Sun 11:03:28 PM 35.1422 -107.0392 105° East 230 265 13,000 -774 Descending Albuquerque Center
Sun 11:04:09 PM 35.1331 -106.9942 104° East 235 270 12,500 -787 Descending Albuquerque Center
Sun 11:04:29 PM 35.1192 -106.9672 122° Southeast 230 265 12,200 -984 Descending Albuquerque Center
Sun 11:05:10 PM 35.0997 -106.9278 121° Southeast 233 268 11,500 -1,200 Descending Albuquerque Center
Sun 11:05:29 PM 35.0864 -106.9003 121° Southeast 225 259 11,000 -689 Descending Albuquerque Center
Sun 11:06:11 PM 35.0722 -106.8706 120° Southeast 226 260 10,800 -985 Descending Albuquerque Center
Sun 11:06:36 PM 35.0531 -106.8308 121° Southeast 220 253 9,900 -1,279 Descending Albuquerque Center
Sun 11:07:12 PM 35.0325 -106.7964 126° Southeast 221 254 9,500 -778 Descending Albuquerque Center
Sun 11:07:30 PM 35.0236 -106.7842 132° Southeast 191 220 9,200 -1,279 Descending Albuquerque Center
Sun 11:08:13 PM 35.0050 -106.7528 126° Southeast 184 212 8,200 -1,377 Descending Albuquerque Center
Sun 11:08:31 PM 34.9989 -106.7386 118° Southeast 151 174 7,800 -1,180 Descending Albuquerque Center
Sun 11:09:14 PM 34.9844 -106.7064 119° Southeast 166 191 7,000 -1,082 Descending Albuquerque Center
Sun 11:09:32 PM 34.9828 -106.6961 101° East 126 145 6,700 -871 Descending Albuquerque Center
Sun 11:10:16 PM 34.9897 -106.6692 73° East 134 154 6,100 -574 Descending Albuquerque Center
Sun 11:11:27 PM 35.0156 -106.6383 44° Northeast 99 114 5,600 -393 Descending Albuquerque Center
Sun 11:12:18 PM 35.0292 -106.6217 45° Northeast 105 121 5,300 -353 Descending Albuquerque Center

Login

Don't have an account? Register now (free) for customized features, flight alerts, and more!